sensor_id;sensor_type;location;lat;lon;timestamp;temperature;humidity
20398;DHT22;10358;49.590;11.030;2022-12-24T00:00:55;10.90;99.90
20398;DHT22;10358;49.590;11.030;2022-12-24T00:03:21;10.90;99.90
20398;DHT22;10358;49.590;11.030;2022-12-24T00:05:47;10.90;99.90
20398;DHT22;10358;49.590;11.030;2022-12-24T00:08:12;10.90;99.90
20398;DHT22;10358;49.590;11.030;2022-12-24T00:10:38;10.90;99.90
20398;DHT22;10358;49.590;11.030;2022-12-24T00:13:03;11.00;99.90
20398;DHT22;10358;49.590;11.030;2022-12-24T00:15:29;11.00;99.90
20398;DHT22;10358;49.590;11.030;2022-12-24T00:17:54;11.00;99.90
20398;DHT22;10358;49.590;11.030;2022-12-24T00:20:20;10.90;99.90
20398;DHT22;10358;49.590;11.030;2022-12-24T00:22:45;11.00;99.90
20398;DHT22;10358;49.590;11.030;2022-12-24T00:25:11;11.00;99.90
20398;DHT22;10358;49.590;11.030;2022-12-24T00:27:36;11.00;99.90
20398;DHT22;10358;49.590;11.030;2022-12-24T00:30:02;11.00;99.90
20398;DHT22;10358;49.590;11.030;2022-12-24T00:32:28;10.90;99.90
20398;DHT22;10358;49.590;11.030;2022-12-24T00:34:53;10.90;99.90
20398;DHT22;10358;49.590;11.030;2022-12-24T00:37:19;10.90;99.90
20398;DHT22;10358;49.590;11.030;2022-12-24T00:39:44;10.90;99.90
20398;DHT22;10358;49.590;11.030;2022-12-24T00:42:10;10.90;99.90
20398;DHT22;10358;49.590;11.030;2022-12-24T00:44:36;10.90;99.90
20398;DHT22;10358;49.590;11.030;2022-12-24T00:47:01;10.80;99.90
20398;DHT22;10358;49.590;11.030;2022-12-24T00:49:27;10.90;99.90
20398;DHT22;10358;49.590;11.030;2022-12-24T00:51:52;10.90;99.90
20398;DHT22;10358;49.590;11.030;2022-12-24T00:54:18;10.90;99.90
20398;DHT22;10358;49.590;11.030;2022-12-24T00:56:43;10.90;99.90
20398;DHT22;10358;49.590;11.030;2022-12-24T00:59:09;10.90;99.90
20398;DHT22;10358;49.590;11.030;2022-12-24T01:01:34;10.90;99.90
20398;DHT22;10358;49.590;11.030;2022-12-24T01:04:01;10.80;99.90
20398;DHT22;10358;49.590;11.030;2022-12-24T01:06:45;10.90;99.90
20398;DHT22;10358;49.590;11.030;2022-12-24T01:09:10;10.90;99.90
20398;DHT22;10358;49.590;11.030;2022-12-24T01:11:36;10.90;99.90
20398;DHT22;10358;49.590;11.030;2022-12-24T01:14:02;10.90;99.90
20398;DHT22;10358;49.590;11.030;2022-12-24T01:16:28;10.80;99.90
20398;DHT22;10358;49.590;11.030;2022-12-24T01:18:53;10.80;99.90
20398;DHT22;10358;49.590;11.030;2022-12-24T01:21:19;10.80;99.90
20398;DHT22;10358;49.590;11.030;2022-12-24T01:23:45;10.80;99.90
20398;DHT22;10358;49.590;11.030;2022-12-24T01:26:10;10.80;99.90
20398;DHT22;10358;49.590;11.030;2022-12-24T01:28:37;10.80;99.90
20398;DHT22;10358;49.590;11.030;2022-12-24T01:31:08;10.80;99.90
20398;DHT22;10358;49.590;11.030;2022-12-24T01:33:34;10.80;99.90
20398;DHT22;10358;49.590;11.030;2022-12-24T01:36:02;10.80;99.90
20398;DHT22;10358;49.590;11.030;2022-12-24T01:38:27;10.80;99.90
20398;DHT22;10358;49.590;11.030;2022-12-24T01:40:53;10.80;99.90
20398;DHT22;10358;49.590;11.030;2022-12-24T01:43:37;10.80;99.90
20398;DHT22;10358;49.590;11.030;2022-12-24T01:46:10;10.70;99.90
20398;DHT22;10358;49.590;11.030;2022-12-24T01:48:52;10.70;99.90
20398;DHT22;10358;49.590;11.030;2022-12-24T01:51:49;10.60;99.90
20398;DHT22;10358;49.590;11.030;2022-12-24T01:54:20;10.50;99.90
20398;DHT22;10358;49.590;11.030;2022-12-24T01:56:54;10.40;99.90
20398;DHT22;10358;49.590;11.030;2022-12-24T01:59:22;10.40;99.90
20398;DHT22;10358;49.590;11.030;2022-12-24T02:01:49;10.30;99.90
20398;DHT22;10358;49.590;11.030;2022-12-24T02:04:41;10.30;99.90
20398;DHT22;10358;49.590;11.030;2022-12-24T02:07:08;10.30;99.90
20398;DHT22;10358;49.590;11.030;2022-12-24T02:09:35;10.20;99.90
20398;DHT22;10358;49.590;11.030;2022-12-24T02:12:01;10.10;99.90
20398;DHT22;10358;49.590;11.030;2022-12-24T02:14:27;10.10;99.90
20398;DHT22;10358;49.590;11.030;2022-12-24T02:17:01;10.00;99.90
20398;DHT22;10358;49.590;11.030;2022-12-24T02:27:52;9.80;99.90
20398;DHT22;10358;49.590;11.030;2022-12-24T02:30:26;9.80;99.90
20398;DHT22;10358;49.590;11.030;2022-12-24T02:33:26;9.80;99.90
20398;DHT22;10358;49.590;11.030;2022-12-24T02:35:58;9.80;99.90
20398;DHT22;10358;49.590;11.030;2022-12-24T02:38:33;9.80;99.90
20398;DHT22;10358;49.590;11.030;2022-12-24T02:41:07;9.80;99.90
20398;DHT22;10358;49.590;11.030;2022-12-24T02:43:36;9.70;99.90
20398;DHT22;10358;49.590;11.030;2022-12-24T02:46:16;9.80;99.90
20398;DHT22;10358;49.590;11.030;2022-12-24T02:48:45;9.80;99.90
20398;DHT22;10358;49.590;11.030;2022-12-24T02:51:12;9.70;99.90
20398;DHT22;10358;49.590;11.030;2022-12-24T02:53:38;9.70;99.90
20398;DHT22;10358;49.590;11.030;2022-12-24T02:56:16;9.60;99.90
20398;DHT22;10358;49.590;11.030;2022-12-24T03:04:54;9.50;99.90
20398;DHT22;10358;49.590;11.030;2022-12-24T03:07:36;9.50;99.90
20398;DHT22;10358;49.590;11.030;2022-12-24T03:13:01;9.50;99.90
20398;DHT22;10358;49.590;11.030;2022-12-24T03:15:28;9.50;99.90
20398;DHT22;10358;49.590;11.030;2022-12-24T03:17:58;9.50;99.90
20398;DHT22;10358;49.590;11.030;2022-12-24T03:20:30;9.40;99.90
20398;DHT22;10358;49.590;11.030;2022-12-24T03:22:57;9.40;99.90
20398;DHT22;10358;49.590;11.030;2022-12-24T03:25:24;9.40;99.90
20398;DHT22;10358;49.590;11.030;2022-12-24T03:27:51;9.40;99.90
20398;DHT22;10358;49.590;11.030;2022-12-24T03:30:17;9.30;99.90
20398;DHT22;10358;49.590;11.030;2022-12-24T03:32:43;9.30;99.90
20398;DHT22;10358;49.590;11.030;2022-12-24T03:35:10;9.30;99.90
20398;DHT22;10358;49.590;11.030;2022-12-24T03:37:36;9.30;99.90
20398;DHT22;10358;49.590;11.030;2022-12-24T03:40:03;9.30;99.90
20398;DHT22;10358;49.590;11.030;2022-12-24T03:42:29;9.30;99.90
20398;DHT22;10358;49.590;11.030;2022-12-24T03:44:55;9.30;99.90
20398;DHT22;10358;49.590;11.030;2022-12-24T03:47:20;9.30;99.90
20398;DHT22;10358;49.590;11.030;2022-12-24T03:49:46;9.20;99.90
20398;DHT22;10358;49.590;11.030;2022-12-24T03:52:11;9.20;99.90
20398;DHT22;10358;49.590;11.030;2022-12-24T03:54:37;9.20;99.90
20398;DHT22;10358;49.590;11.030;2022-12-24T03:57:02;9.20;99.90
20398;DHT22;10358;49.590;11.030;2022-12-24T03:59:28;9.10;99.90
20398;DHT22;10358;49.590;11.030;2022-12-24T04:01:53;9.10;99.90
20398;DHT22;10358;49.590;11.030;2022-12-24T04:04:19;9.00;99.90
20398;DHT22;10358;49.590;11.030;2022-12-24T04:06:44;8.90;99.90
20398;DHT22;10358;49.590;11.030;2022-12-24T04:09:10;8.90;99.90
20398;DHT22;10358;49.590;11.030;2022-12-24T04:11:35;8.90;99.90
20398;DHT22;10358;49.590;11.030;2022-12-24T04:14:01;8.80;99.90
20398;DHT22;10358;49.590;11.030;2022-12-24T04:16:26;8.80;99.90
20398;DHT22;10358;49.590;11.030;2022-12-24T04:18:52;8.80;99.90
20398;DHT22;10358;49.590;11.030;2022-12-24T04:21:17;8.80;99.90
20398;DHT22;10358;49.590;11.030;2022-12-24T04:23:44;8.70;99.90
20398;DHT22;10358;49.590;11.030;2022-12-24T04:26:11;8.70;99.90
20398;DHT22;10358;49.590;11.030;2022-12-24T04:28:38;8.80;99.90
20398;DHT22;10358;49.590;11.030;2022-12-24T04:31:09;8.80;99.90
20398;DHT22;10358;49.590;11.030;2022-12-24T04:33:36;8.80;99.90
20398;DHT22;10358;49.590;11.030;2022-12-24T04:36:03;8.80;99.90
20398;DHT22;10358;49.590;11.030;2022-12-24T04:38:29;8.80;99.90
20398;DHT22;10358;49.590;11.030;2022-12-24T04:41:06;8.90;99.90
20398;DHT22;10358;49.590;11.030;2022-12-24T04:43:32;8.90;99.90
20398;DHT22;10358;49.590;11.030;2022-12-24T04:46:09;8.90;99.90
20398;DHT22;10358;49.590;11.030;2022-12-24T04:48:35;9.00;99.90
20398;DHT22;10358;49.590;11.030;2022-12-24T04:51:03;9.00;99.90
20398;DHT22;10358;49.590;11.030;2022-12-24T04:53:29;9.00;99.90
20398;DHT22;10358;49.590;11.030;2022-12-24T04:55:55;9.00;99.90
20398;DHT22;10358;49.590;11.030;2022-12-24T04:58:20;9.10;99.90
20398;DHT22;10358;49.590;11.030;2022-12-24T05:00:46;9.10;99.90
20398;DHT22;10358;49.590;11.030;2022-12-24T05:03:11;9.20;99.90
20398;DHT22;10358;49.590;11.030;2022-12-24T05:05:37;9.20;99.90
20398;DHT22;10358;49.590;11.030;2022-12-24T05:08:02;9.20;99.90
20398;DHT22;10358;49.590;11.030;2022-12-24T05:10:28;9.30;99.90
20398;DHT22;10358;49.590;11.030;2022-12-24T05:12:53;9.30;99.90
20398;DHT22;10358;49.590;11.030;2022-12-24T05:15:19;9.30;99.90
20398;DHT22;10358;49.590;11.030;2022-12-24T05:17:44;9.40;99.90
20398;DHT22;10358;49.590;11.030;2022-12-24T05:20:10;9.40;99.90
20398;DHT22;10358;49.590;11.030;2022-12-24T05:22:35;9.40;99.90
20398;DHT22;10358;49.590;11.030;2022-12-24T05:25:20;9.40;99.90
20398;DHT22;10358;49.590;11.030;2022-12-24T05:28:04;9.40;99.90
20398;DHT22;10358;49.590;11.030;2022-12-24T05:30:30;9.40;99.90
20398;DHT22;10358;49.590;11.030;2022-12-24T05:32:55;9.40;99.90
20398;DHT22;10358;49.590;11.030;2022-12-24T05:35:21;9.40;99.90
20398;DHT22;10358;49.590;11.030;2022-12-24T05:37:46;9.40;99.90
20398;DHT22;10358;49.590;11.030;2022-12-24T05:40:12;9.40;99.90
20398;DHT22;10358;49.590;11.030;2022-12-24T05:42:37;9.40;99.90
20398;DHT22;10358;49.590;11.030;2022-12-24T05:45:03;9.40;99.90
20398;DHT22;10358;49.590;11.030;2022-12-24T05:47:29;9.40;99.90
20398;DHT22;10358;49.590;11.030;2022-12-24T05:49:54;9.40;99.90
20398;DHT22;10358;49.590;11.030;2022-12-24T05:52:20;9.40;99.90
20398;DHT22;10358;49.590;11.030;2022-12-24T05:54:45;9.40;99.90
20398;DHT22;10358;49.590;11.030;2022-12-24T05:57:11;9.40;99.90
20398;DHT22;10358;49.590;11.030;2022-12-24T05:59:36;9.40;99.90
20398;DHT22;10358;49.590;11.030;2022-12-24T06:02:02;9.40;99.90
20398;DHT22;10358;49.590;11.030;2022-12-24T06:04:27;9.40;99.90
20398;DHT22;10358;49.590;11.030;2022-12-24T06:06:53;9.40;99.90
20398;DHT22;10358;49.590;11.030;2022-12-24T06:09:18;9.40;99.90
20398;DHT22;10358;49.590;11.030;2022-12-24T06:11:44;9.40;99.90
20398;DHT22;10358;49.590;11.030;2022-12-24T06:14:09;9.40;99.90
20398;DHT22;10358;49.590;11.030;2022-12-24T06:16:35;9.40;99.90
20398;DHT22;10358;49.590;11.030;2022-12-24T06:19:00;9.40;99.90
20398;DHT22;10358;49.590;11.030;2022-12-24T06:21:26;9.40;99.90
20398;DHT22;10358;49.590;11.030;2022-12-24T06:23:52;9.40;99.90
20398;DHT22;10358;49.590;11.030;2022-12-24T06:26:20;9.40;99.90
20398;DHT22;10358;49.590;11.030;2022-12-24T06:28:46;9.40;99.90
20398;DHT22;10358;49.590;11.030;2022-12-24T06:31:14;9.50;99.90
20398;DHT22;10358;49.590;11.030;2022-12-24T06:33:40;9.40;99.90
20398;DHT22;10358;49.590;11.030;2022-12-24T06:36:17;9.40;99.90
20398;DHT22;10358;49.590;11.030;2022-12-24T06:38:43;9.40;99.90
20398;DHT22;10358;49.590;11.030;2022-12-24T06:41:08;9.40;99.90
20398;DHT22;10358;49.590;11.030;2022-12-24T06:43:34;9.40;99.90
20398;DHT22;10358;49.590;11.030;2022-12-24T06:46:01;9.40;99.90
20398;DHT22;10358;49.590;11.030;2022-12-24T06:48:27;9.50;99.90
20398;DHT22;10358;49.590;11.030;2022-12-24T06:50:52;9.50;99.90
20398;DHT22;10358;49.590;11.030;2022-12-24T06:53:18;9.50;99.90
20398;DHT22;10358;49.590;11.030;2022-12-24T06:55:44;9.50;99.90
20398;DHT22;10358;49.590;11.030;2022-12-24T06:58:09;9.50;99.90
20398;DHT22;10358;49.590;11.030;2022-12-24T07:00:35;9.50;99.90
20398;DHT22;10358;49.590;11.030;2022-12-24T07:03:01;9.50;99.90
20398;DHT22;10358;49.590;11.030;2022-12-24T07:05:27;9.50;99.90
20398;DHT22;10358;49.590;11.030;2022-12-24T07:07:53;9.50;99.90
20398;DHT22;10358;49.590;11.030;2022-12-24T07:10:19;9.50;99.90
20398;DHT22;10358;49.590;11.030;2022-12-24T07:12:46;9.50;99.90
20398;DHT22;10358;49.590;11.030;2022-12-24T07:15:12;9.50;99.90
20398;DHT22;10358;49.590;11.030;2022-12-24T07:17:38;9.50;99.90
20398;DHT22;10358;49.590;11.030;2022-12-24T07:20:05;9.50;99.90
20398;DHT22;10358;49.590;11.030;2022-12-24T07:22:31;9.50;99.90
20398;DHT22;10358;49.590;11.030;2022-12-24T07:24:57;9.50;99.90
20398;DHT22;10358;49.590;11.030;2022-12-24T07:27:22;9.40;99.90
20398;DHT22;10358;49.590;11.030;2022-12-24T07:29:48;9.40;99.90
20398;DHT22;10358;49.590;11.030;2022-12-24T07:32:13;9.40;99.90
20398;DHT22;10358;49.590;11.030;2022-12-24T07:34:39;9.40;99.90
20398;DHT22;10358;49.590;11.030;2022-12-24T07:37:06;9.40;99.90
20398;DHT22;10358;49.590;11.030;2022-12-24T07:39:32;9.40;99.90
20398;DHT22;10358;49.590;11.030;2022-12-24T07:41:57;9.40;99.90
20398;DHT22;10358;49.590;11.030;2022-12-24T07:44:23;9.30;99.90
20398;DHT22;10358;49.590;11.030;2022-12-24T07:46:49;9.30;99.90
20398;DHT22;10358;49.590;11.030;2022-12-24T07:49:14;9.30;99.90
20398;DHT22;10358;49.590;11.030;2022-12-24T07:51:40;9.30;99.90
20398;DHT22;10358;49.590;11.030;2022-12-24T07:54:05;9.30;99.90
20398;DHT22;10358;49.590;11.030;2022-12-24T07:56:31;9.30;99.90
20398;DHT22;10358;49.590;11.030;2022-12-24T07:58:57;9.30;99.90
20398;DHT22;10358;49.590;11.030;2022-12-24T08:01:22;9.40;99.90
20398;DHT22;10358;49.590;11.030;2022-12-24T08:03:48;9.40;99.90
20398;DHT22;10358;49.590;11.030;2022-12-24T08:06:15;9.50;99.90
20398;DHT22;10358;49.590;11.030;2022-12-24T08:08:41;9.50;99.90
20398;DHT22;10358;49.590;11.030;2022-12-24T08:11:07;9.50;99.90
20398;DHT22;10358;49.590;11.030;2022-12-24T08:13:32;9.50;99.90
20398;DHT22;10358;49.590;11.030;2022-12-24T08:15:58;9.50;99.90
20398;DHT22;10358;49.590;11.030;2022-12-24T08:18:24;9.60;99.90
20398;DHT22;10358;49.590;11.030;2022-12-24T08:20:50;9.60;99.90
20398;DHT22;10358;49.590;11.030;2022-12-24T08:23:16;9.60;99.90
20398;DHT22;10358;49.590;11.030;2022-12-24T08:25:43;9.60;99.90
20398;DHT22;10358;49.590;11.030;2022-12-24T08:28:08;9.70;99.90
20398;DHT22;10358;49.590;11.030;2022-12-24T08:30:34;9.70;99.90
20398;DHT22;10358;49.590;11.030;2022-12-24T08:33:00;9.80;99.90
20398;DHT22;10358;49.590;11.030;2022-12-24T08:35:26;9.80;99.90
20398;DHT22;10358;49.590;11.030;2022-12-24T08:37:52;9.80;99.90
20398;DHT22;10358;49.590;11.030;2022-12-24T08:40:17;9.90;99.90
20398;DHT22;10358;49.590;11.030;2022-12-24T08:42:43;9.90;99.90
20398;DHT22;10358;49.590;11.030;2022-12-24T08:45:08;9.90;99.90
20398;DHT22;10358;49.590;11.030;2022-12-24T08:47:36;10.00;99.90
20398;DHT22;10358;49.590;11.030;2022-12-24T08:50:03;10.10;99.90
20398;DHT22;10358;49.590;11.030;2022-12-24T08:52:29;10.20;99.90
20398;DHT22;10358;49.590;11.030;2022-12-24T08:54:54;10.20;99.90
20398;DHT22;10358;49.590;11.030;2022-12-24T08:57:20;10.30;99.90
20398;DHT22;10358;49.590;11.030;2022-12-24T08:59:45;10.30;99.90
20398;DHT22;10358;49.590;11.030;2022-12-24T09:02:11;10.40;99.90
20398;DHT22;10358;49.590;11.030;2022-12-24T09:04:37;10.40;99.90
20398;DHT22;10358;49.590;11.030;2022-12-24T09:07:05;10.40;99.90
20398;DHT22;10358;49.590;11.030;2022-12-24T09:09:30;10.40;99.90
20398;DHT22;10358;49.590;11.030;2022-12-24T09:11:56;10.40;99.90
20398;DHT22;10358;49.590;11.030;2022-12-24T09:14:21;10.50;99.90
20398;DHT22;10358;49.590;11.030;2022-12-24T09:16:47;10.50;99.90
20398;DHT22;10358;49.590;11.030;2022-12-24T09:19:12;10.50;99.90
20398;DHT22;10358;49.590;11.030;2022-12-24T09:21:38;10.50;99.90
20398;DHT22;10358;49.590;11.030;2022-12-24T09:24:04;10.50;99.90
20398;DHT22;10358;49.590;11.030;2022-12-24T09:26:30;10.50;99.90
20398;DHT22;10358;49.590;11.030;2022-12-24T09:28:57;10.60;99.90
20398;DHT22;10358;49.590;11.030;2022-12-24T09:31:23;10.60;99.90
20398;DHT22;10358;49.590;11.030;2022-12-24T09:33:50;10.60;99.90
20398;DHT22;10358;49.590;11.030;2022-12-24T09:36:16;10.60;99.90
20398;DHT22;10358;49.590;11.030;2022-12-24T09:38:41;10.70;99.90
20398;DHT22;10358;49.590;11.030;2022-12-24T09:43:52;10.70;99.90
20398;DHT22;10358;49.590;11.030;2022-12-24T09:46:22;10.70;99.90
20398;DHT22;10358;49.590;11.030;2022-12-24T09:48:52;10.70;99.90
20398;DHT22;10358;49.590;11.030;2022-12-24T09:52:19;10.70;99.90
20398;DHT22;10358;49.590;11.030;2022-12-24T09:54:28;10.70;99.90
20398;DHT22;10358;49.590;11.030;2022-12-24T09:56:57;10.70;99.90
20398;DHT22;10358;49.590;11.030;2022-12-24T09:59:41;10.80;99.90
20398;DHT22;10358;49.590;11.030;2022-12-24T10:02:13;10.80;99.90
20398;DHT22;10358;49.590;11.030;2022-12-24T10:04:39;10.80;99.90
20398;DHT22;10358;49.590;11.030;2022-12-24T10:15:39;10.90;99.90
20398;DHT22;10358;49.590;11.030;2022-12-24T10:18:29;10.90;99.90
20398;DHT22;10358;49.590;11.030;2022-12-24T10:21:09;11.00;99.90
20398;DHT22;10358;49.590;11.030;2022-12-24T10:23:45;11.00;99.90
20398;DHT22;10358;49.590;11.030;2022-12-24T10:31:10;11.00;99.90
20398;DHT22;10358;49.590;11.030;2022-12-24T10:33:43;11.00;99.90
20398;DHT22;10358;49.590;11.030;2022-12-24T10:36:16;11.00;99.90
20398;DHT22;10358;49.590;11.030;2022-12-24T10:38:43;11.00;99.90
20398;DHT22;10358;49.590;11.030;2022-12-24T10:41:09;11.00;99.90
20398;DHT22;10358;49.590;11.030;2022-12-24T10:43:37;11.00;99.90
20398;DHT22;10358;49.590;11.030;2022-12-24T10:46:21;11.00;99.90
20398;DHT22;10358;49.590;11.030;2022-12-24T10:48:57;11.00;99.90
20398;DHT22;10358;49.590;11.030;2022-12-24T10:54:05;11.10;99.90
20398;DHT22;10358;49.590;11.030;2022-12-24T10:56:42;11.10;99.90
20398;DHT22;10358;49.590;11.030;2022-12-24T10:59:26;11.20;99.90
20398;DHT22;10358;49.590;11.030;2022-12-24T11:01:53;11.30;99.90
20398;DHT22;10358;49.590;11.030;2022-12-24T11:04:25;11.30;99.90
20398;DHT22;10358;49.590;11.030;2022-12-24T11:06:59;11.40;99.90
20398;DHT22;10358;49.590;11.030;2022-12-24T11:09:31;11.30;99.90
20398;DHT22;10358;49.590;11.030;2022-12-24T11:11:58;11.30;99.90
20398;DHT22;10358;49.590;11.030;2022-12-24T11:14:24;11.30;99.90
20398;DHT22;10358;49.590;11.030;2022-12-24T11:16:55;11.30;99.90
20398;DHT22;10358;49.590;11.030;2022-12-24T11:19:32;11.40;99.90
20398;DHT22;10358;49.590;11.030;2022-12-24T11:22:23;11.40;99.90
20398;DHT22;10358;49.590;11.030;2022-12-24T11:25:00;11.40;99.90
20398;DHT22;10358;49.590;11.030;2022-12-24T11:32:37;11.40;99.90
20398;DHT22;10358;49.590;11.030;2022-12-24T11:35:23;11.40;99.90
20398;DHT22;10358;49.590;11.030;2022-12-24T11:38:11;11.50;99.90
20398;DHT22;10358;49.590;11.030;2022-12-24T11:40:43;11.50;99.90
20398;DHT22;10358;49.590;11.030;2022-12-24T11:43:19;11.60;99.90
20398;DHT22;10358;49.590;11.030;2022-12-24T11:45:51;11.60;99.90
20398;DHT22;10358;49.590;11.030;2022-12-24T11:51:00;11.50;99.90
20398;DHT22;10358;49.590;11.030;2022-12-24T11:53:47;11.50;99.90
20398;DHT22;10358;49.590;11.030;2022-12-24T11:56:38;11.40;99.90
20398;DHT22;10358;49.590;11.030;2022-12-24T11:59:14;11.40;99.90
20398;DHT22;10358;49.590;11.030;2022-12-24T12:01:50;11.50;99.90
20398;DHT22;10358;49.590;11.030;2022-12-24T12:04:21;11.50;99.90
20398;DHT22;10358;49.590;11.030;2022-12-24T12:06:57;11.50;99.90
20398;DHT22;10358;49.590;11.030;2022-12-24T12:09:31;11.50;99.90
20398;DHT22;10358;49.590;11.030;2022-12-24T12:12:05;11.50;99.90
20398;DHT22;10358;49.590;11.030;2022-12-24T12:19:59;11.60;99.90
20398;DHT22;10358;49.590;11.030;2022-12-24T12:22:41;11.60;99.90
20398;DHT22;10358;49.590;11.030;2022-12-24T12:25:19;11.70;99.90
20398;DHT22;10358;49.590;11.030;2022-12-24T12:27:49;11.70;99.90
20398;DHT22;10358;49.590;11.030;2022-12-24T12:30:17;11.80;99.90
20398;DHT22;10358;49.590;11.030;2022-12-24T12:32:56;11.90;99.90
20398;DHT22;10358;49.590;11.030;2022-12-24T12:35:31;11.90;99.90
20398;DHT22;10358;49.590;11.030;2022-12-24T12:38:05;12.00;99.90
20398;DHT22;10358;49.590;11.030;2022-12-24T12:41:11;12.00;99.90
20398;DHT22;10358;49.590;11.030;2022-12-24T12:44:02;12.00;99.90
20398;DHT22;10358;49.590;11.030;2022-12-24T12:50:02;12.10;99.90
20398;DHT22;10358;49.590;11.030;2022-12-24T12:52:44;12.00;99.90
20398;DHT22;10358;49.590;11.030;2022-12-24T12:58:02;11.90;99.90
20398;DHT22;10358;49.590;11.030;2022-12-24T13:00:32;11.90;99.90
20398;DHT22;10358;49.590;11.030;2022-12-24T13:03:23;11.90;99.90
20398;DHT22;10358;49.590;11.030;2022-12-24T13:14:39;12.20;99.90
20398;DHT22;10358;49.590;11.030;2022-12-24T13:20:28;12.30;99.90
20398;DHT22;10358;49.590;11.030;2022-12-24T13:22:58;12.40;99.90
20398;DHT22;10358;49.590;11.030;2022-12-24T13:25:48;12.30;99.90
20398;DHT22;10358;49.590;11.030;2022-12-24T13:28:31;12.20;99.90
20398;DHT22;10358;49.590;11.030;2022-12-24T13:36:07;12.00;99.90
20398;DHT22;10358;49.590;11.030;2022-12-24T13:38:42;11.90;99.90
20398;DHT22;10358;49.590;11.030;2022-12-24T13:44:03;11.90;99.90
20398;DHT22;10358;49.590;11.030;2022-12-24T13:46:48;12.00;99.90
20398;DHT22;10358;49.590;11.030;2022-12-24T13:49:19;12.00;99.90
20398;DHT22;10358;49.590;11.030;2022-12-24T13:51:46;11.90;99.90
20398;DHT22;10358;49.590;11.030;2022-12-24T13:54:13;11.80;99.90
20398;DHT22;10358;49.590;11.030;2022-12-24T13:56:40;11.80;99.90
20398;DHT22;10358;49.590;11.030;2022-12-24T13:59:33;11.70;99.90
20398;DHT22;10358;49.590;11.030;2022-12-24T14:02:01;11.70;99.90
20398;DHT22;10358;49.590;11.030;2022-12-24T14:04:29;11.70;99.90
20398;DHT22;10358;49.590;11.030;2022-12-24T14:06:58;11.70;99.90
20398;DHT22;10358;49.590;11.030;2022-12-24T14:09:26;11.70;99.90
20398;DHT22;10358;49.590;11.030;2022-12-24T14:14:36;11.60;99.90
20398;DHT22;10358;49.590;11.030;2022-12-24T14:19:47;11.70;99.90
20398;DHT22;10358;49.590;11.030;2022-12-24T14:22:32;11.60;99.90
20398;DHT22;10358;49.590;11.030;2022-12-24T14:25:02;11.50;99.90
20398;DHT22;10358;49.590;11.030;2022-12-24T14:27:50;11.50;99.90
20398;DHT22;10358;49.590;11.030;2022-12-24T14:30:22;11.60;99.90
20398;DHT22;10358;49.590;11.030;2022-12-24T14:32:49;11.60;99.90
20398;DHT22;10358;49.590;11.030;2022-12-24T14:35:25;11.60;99.90
20398;DHT22;10358;49.590;11.030;2022-12-24T14:38:07;11.60;99.90
20398;DHT22;10358;49.590;11.030;2022-12-24T14:40:47;11.50;99.90
20398;DHT22;10358;49.590;11.030;2022-12-24T14:46:39;11.30;99.90
20398;DHT22;10358;49.590;11.030;2022-12-24T14:49:19;11.20;99.90
20398;DHT22;10358;49.590;11.030;2022-12-24T14:52:03;11.10;99.90
20398;DHT22;10358;49.590;11.030;2022-12-24T14:54:37;11.00;99.90
20398;DHT22;10358;49.590;11.030;2022-12-24T14:59:46;11.00;99.90
20398;DHT22;10358;49.590;11.030;2022-12-24T15:02:44;10.90;99.90
20398;DHT22;10358;49.590;11.030;2022-12-24T15:05:24;10.90;99.90
20398;DHT22;10358;49.590;11.030;2022-12-24T15:07:58;10.80;99.90
20398;DHT22;10358;49.590;11.030;2022-12-24T15:10:27;10.80;99.90
20398;DHT22;10358;49.590;11.030;2022-12-24T15:12:55;10.70;99.90
20398;DHT22;10358;49.590;11.030;2022-12-24T15:15:21;10.70;99.90
20398;DHT22;10358;49.590;11.030;2022-12-24T15:17:47;10.70;99.90
20398;DHT22;10358;49.590;11.030;2022-12-24T15:20:17;10.60;99.90
20398;DHT22;10358;49.590;11.030;2022-12-24T15:22:46;10.60;99.90
20398;DHT22;10358;49.590;11.030;2022-12-24T15:25:29;10.60;99.90
20398;DHT22;10358;49.590;11.030;2022-12-24T15:27:56;10.60;99.90
20398;DHT22;10358;49.590;11.030;2022-12-24T15:30:26;10.60;99.90
20398;DHT22;10358;49.590;11.030;2022-12-24T15:32:53;10.50;99.90
20398;DHT22;10358;49.590;11.030;2022-12-24T15:37:59;10.50;99.90
20398;DHT22;10358;49.590;11.030;2022-12-24T15:40:25;10.40;99.90
20398;DHT22;10358;49.590;11.030;2022-12-24T15:42:51;10.30;99.90
20398;DHT22;10358;49.590;11.030;2022-12-24T15:45:20;10.30;99.90
20398;DHT22;10358;49.590;11.030;2022-12-24T15:47:53;10.20;99.90
20398;DHT22;10358;49.590;11.030;2022-12-24T15:50:32;10.20;99.90
20398;DHT22;10358;49.590;11.030;2022-12-24T15:53:12;10.10;99.90
20398;DHT22;10358;49.590;11.030;2022-12-24T15:55:43;10.10;99.90
20398;DHT22;10358;49.590;11.030;2022-12-24T15:58:25;10.10;99.90
20398;DHT22;10358;49.590;11.030;2022-12-24T16:06:15;9.70;99.90
20398;DHT22;10358;49.590;11.030;2022-12-24T16:08:42;9.60;99.90
20398;DHT22;10358;49.590;11.030;2022-12-24T16:11:18;9.50;99.90
20398;DHT22;10358;49.590;11.030;2022-12-24T16:16:18;9.40;99.90
20398;DHT22;10358;49.590;11.030;2022-12-24T16:18:51;9.30;99.90
20398;DHT22;10358;49.590;11.030;2022-12-24T16:21:40;9.30;99.90
20398;DHT22;10358;49.590;11.030;2022-12-24T16:24:17;9.20;99.90
20398;DHT22;10358;49.590;11.030;2022-12-24T16:26:44;9.10;99.90
20398;DHT22;10358;49.590;11.030;2022-12-24T16:29:11;9.00;99.90
20398;DHT22;10358;49.590;11.030;2022-12-24T16:31:43;9.00;99.90
20398;DHT22;10358;49.590;11.030;2022-12-24T16:34:14;8.90;99.90
20398;DHT22;10358;49.590;11.030;2022-12-24T16:36:40;8.90;99.90
20398;DHT22;10358;49.590;11.030;2022-12-24T16:39:18;8.80;99.90
20398;DHT22;10358;49.590;11.030;2022-12-24T16:41:52;8.70;99.90
20398;DHT22;10358;49.590;11.030;2022-12-24T16:44:36;8.70;99.90
20398;DHT22;10358;49.590;11.030;2022-12-24T16:47:03;8.60;99.90
20398;DHT22;10358;49.590;11.030;2022-12-24T16:49:29;8.50;99.90
20398;DHT22;10358;49.590;11.030;2022-12-24T16:51:55;8.50;99.90
20398;DHT22;10358;49.590;11.030;2022-12-24T16:54:20;8.40;99.90
20398;DHT22;10358;49.590;11.030;2022-12-24T16:56:46;8.40;99.90
20398;DHT22;10358;49.590;11.030;2022-12-24T16:59:20;8.40;99.90
20398;DHT22;10358;49.590;11.030;2022-12-24T17:01:47;8.40;99.90
20398;DHT22;10358;49.590;11.030;2022-12-24T17:04:13;8.40;99.90
20398;DHT22;10358;49.590;11.030;2022-12-24T17:06:39;8.40;99.90
20398;DHT22;10358;49.590;11.030;2022-12-24T17:09:05;8.40;99.90
20398;DHT22;10358;49.590;11.030;2022-12-24T17:11:30;8.40;99.90
20398;DHT22;10358;49.590;11.030;2022-12-24T17:13:56;8.40;99.90
20398;DHT22;10358;49.590;11.030;2022-12-24T17:16:22;8.40;99.90